Time;durP1;ratioP1;P1;durP2;ratioP2;P2;SDS_P1;SDS_P2;PMS_P1;PMS_P2;Temp;Humidity;BMP_temperature;BMP_pressure;BME280_temperature;BME280_humidity;BME280_pressure;Samples;Min_cycle;Max_cycle;Signal;HPM_P1;HPM_P2
2023/03/08 00:00:25;;;;;;;11.00;6.37;;;;;;;5.58;42.40;94870.53;5027374;28;20175;-70
2023/03/08 00:02:52;;;;;;;8.63;6.80;;;;;;;5.61;42.07;94872.97;5027202;28;20754;-70
2023/03/08 00:05:18;;;;;;;14.30;7.00;;;;;;;5.62;42.38;94872.09;5027043;28;20237;-69
2023/03/08 00:07:44;;;;;;;16.70;8.30;;;;;;;5.58;42.37;94867.94;5026665;28;20418;-69
2023/03/08 00:10:10;;;;;;;10.23;7.10;;;;;;;5.55;42.74;94873.31;5027187;28;20754;-69
2023/03/08 00:12:35;;;;;;;9.67;7.30;;;;;;;5.48;42.85;94872.75;5025642;28;20711;-69
2023/03/08 00:15:01;;;;;;;14.03;7.60;;;;;;;5.52;42.41;94882.06;5026923;28;20406;-69
2023/03/08 00:17:26;;;;;;;14.20;7.27;;;;;;;5.57;42.26;94881.84;5026313;28;20301;-69
2023/03/08 00:19:51;;;;;;;13.20;6.70;;;;;;;5.48;42.54;94890.09;5027150;28;20882;-68
2023/03/08 00:22:17;;;;;;;16.70;7.47;;;;;;;5.55;42.45;94894.13;5025128;28;20192;-69
2023/03/08 00:24:42;;;;;;;11.23;7.00;;;;;;;5.56;42.55;94897.56;5027036;28;20650;-69
2023/03/08 00:27:08;;;;;;;10.97;6.60;;;;;;;5.47;42.85;94901.44;5025164;28;20645;-69
2023/03/08 00:29:33;;;;;;;14.30;9.03;;;;;;;5.44;43.28;94899.81;5026691;28;20176;-69
2023/03/08 00:31:58;;;;;;;10.93;7.37;;;;;;;5.49;43.15;94899.59;5026646;28;20167;-68
2023/03/08 00:34:24;;;;;;;9.90;6.90;;;;;;;5.47;43.42;94898.81;5026906;28;20176;-69
2023/03/08 00:36:49;;;;;;;10.67;7.60;;;;;;;5.56;43.67;94901.00;5026871;28;20176;-69
2023/03/08 00:39:15;;;;;;;10.87;8.07;;;;;;;5.56;43.36;94893.19;5029002;28;20173;-68
2023/03/08 00:41:41;;;;;;;11.07;7.70;;;;;;;5.42;44.32;94898.22;5028933;28;20540;-69
2023/03/08 00:44:07;;;;;;;11.30;8.27;;;;;;;5.39;44.35;94898.38;5027221;28;20191;-70
2023/03/08 00:46:32;;;;;;;12.07;7.70;;;;;;;5.41;44.27;94897.38;5026164;28;20938;-70
2023/03/08 00:48:58;;;;;;;9.17;7.10;;;;;;;5.33;44.60;94898.66;5028082;28;20175;-70
2023/03/08 00:51:25;;;;;;;9.90;7.00;;;;;;;5.30;44.95;94900.47;5027010;28;20281;-70
2023/03/08 00:53:51;;;;;;;9.80;7.57;;;;;;;5.39;44.81;94901.81;5027031;28;20677;-68
2023/03/08 00:56:17;;;;;;;11.80;7.07;;;;;;;5.37;44.85;94901.03;5026607;28;20406;-69
2023/03/08 00:58:42;;;;;;;11.40;7.90;;;;;;;5.30;44.86;94904.84;5027006;28;20413;-69
2023/03/08 01:01:12;;;;;;;11.83;8.00;;;;;;;5.36;44.72;94906.28;5026784;28;20547;-72
2023/03/08 01:03:38;;;;;;;13.20;8.60;;;;;;;5.26;44.88;94903.28;5025710;28;20210;-69
2023/03/08 01:06:07;;;;;;;12.50;7.40;;;;;;;5.37;44.97;94901.03;5026674;28;20458;-70
2023/03/08 01:08:33;;;;;;;14.53;8.27;;;;;;;5.34;45.17;94900.31;5027002;28;20164;-70
2023/03/08 01:10:59;;;;;;;12.03;7.73;;;;;;;5.28;45.20;94891.91;5032304;28;20414;-70
2023/03/08 01:13:30;;;;;;;14.30;8.20;;;;;;;5.22;45.41;94886.13;5032438;28;20191;-70
2023/03/08 01:15:55;;;;;;;11.53;7.03;;;;;;;5.39;44.65;94885.34;5029636;28;20828;-70
2023/03/08 01:18:21;;;;;;;11.27;7.43;;;;;;;5.32;45.27;94874.41;5029415;28;20424;-68
2023/03/08 01:21:03;;;;;;;15.93;8.07;;;;;;;5.25;45.03;94871.25;5026905;28;20373;-68
2023/03/08 01:23:29;;;;;;;10.47;7.40;;;;;;;5.23;45.25;94870.47;5026492;28;20202;-69
2023/03/08 01:25:59;;;;;;;14.30;7.37;;;;;;;5.32;44.78;94861.41;5025989;28;20445;-69
2023/03/08 01:28:25;;;;;;;10.13;6.80;;;;;;;5.21;44.99;94856.69;5026478;28;20172;-69
2023/03/08 01:30:50;;;;;;;16.43;7.70;;;;;;;5.16;45.31;94856.06;5017778;28;20829;-67
2023/03/08 01:33:15;;;;;;;12.10;7.30;;;;;;;5.38;44.56;94849.84;5006508;28;20195;-68
2023/03/08 01:35:41;;;;;;;10.57;7.70;;;;;;;5.29;45.06;94851.13;5009727;28;20171;-69
2023/03/08 01:38:06;;;;;;;11.77;8.03;;;;;;;5.18;45.01;94846.44;5010230;28;20267;-70
2023/03/08 01:40:32;;;;;;;9.97;7.10;;;;;;;5.27;45.12;94838.22;5010518;28;20172;-68
2023/03/08 01:42:57;;;;;;;13.03;8.10;;;;;;;5.40;44.54;94838.44;5010529;28;20192;-69
2023/03/08 01:46:00;;;;;;;14.80;7.30;;;;;;;5.22;44.94;94835.00;5022725;28;20203;-69
2023/03/08 01:48:32;;;;;;;16.03;8.13;;;;;;;5.17;45.40;94823.94;5029943;28;20243;-70
2023/03/08 01:50:59;;;;;;;13.47;8.47;;;;;;;5.13;45.26;94821.59;5029676;28;20402;-69
2023/03/08 01:53:25;;;;;;;11.00;8.03;;;;;;;5.10;45.45;94822.56;5029808;28;20454;-70
2023/03/08 01:55:51;;;;;;;13.83;8.77;;;;;;;5.14;45.92;94815.47;5029589;28;20493;-69
2023/03/08 01:58:16;;;;;;;10.27;7.53;;;;;;;5.10;45.90;94814.75;5029575;28;20178;-68
2023/03/08 02:00:42;;;;;;;13.27;7.07;;;;;;;5.03;45.68;94811.63;5029530;28;20176;-69
2023/03/08 02:03:10;;;;;;;18.33;8.40;;;;;;;4.77;47.04;94806.78;5029705;28;20188;-68
2023/03/08 02:05:38;;;;;;;8.20;7.23;;;;;;;4.71;47.12;94809.69;5029391;28;20191;-69
2023/03/08 02:08:03;;;;;;;13.20;8.03;;;;;;;4.54;47.14;94810.47;5029354;28;20887;-68
2023/03/08 02:10:29;;;;;;;10.63;7.13;;;;;;;4.34;48.01;94824.34;5028495;28;20505;-68
2023/03/08 02:12:55;;;;;;;9.57;6.73;;;;;;;4.19;48.68;94821.53;5029339;28;20294;-68
2023/03/08 02:15:21;;;;;;;11.03;8.00;;;;;;;3.91;49.66;94818.47;5029384;28;20577;-69
2023/03/08 02:17:47;;;;;;;12.10;7.90;;;;;;;4.38;48.15;94807.72;5029245;28;20536;-69
2023/03/08 02:20:15;;;;;;;26.73;9.20;;;;;;;4.59;47.82;94803.31;5029646;28;20464;-68
2023/03/08 02:22:42;;;;;;;16.67;8.00;;;;;;;4.72;47.84;94793.19;5028925;28;20203;-71
2023/03/08 02:25:14;;;;;;;11.17;7.57;;;;;;;4.69;47.80;94788.97;5029407;28;20418;-70
2023/03/08 02:27:39;;;;;;;9.23;6.90;;;;;;;4.52;47.88;94792.34;5029233;28;20418;-70
2023/03/08 02:30:05;;;;;;;8.30;6.80;;;;;;;4.61;47.76;94791.09;5029342;28;20489;-69
2023/03/08 02:32:31;;;;;;;11.90;7.70;;;;;;;4.37;48.76;94790.44;5029192;28;20207;-69
2023/03/08 02:34:56;;;;;;;11.60;7.20;;;;;;;4.26;48.76;94785.75;5029380;28;20402;-71
2023/03/08 02:37:21;;;;;;;9.87;7.20;;;;;;;4.34;48.77;94795.78;5027197;28;20176;-69
2023/03/08 02:39:47;;;;;;;10.60;6.93;;;;;;;4.40;49.00;94795.53;5029014;28;20175;-70
2023/03/08 02:42:12;;;;;;;11.40;7.30;;;;;;;4.53;48.57;94788.84;5029143;28;20222;-70
2023/03/08 02:44:38;;;;;;;9.33;7.80;;;;;;;4.49;48.74;94789.91;5027193;28;20706;-72
2023/03/08 02:47:03;;;;;;;10.80;8.43;;;;;;;4.13;49.69;94782.84;5026975;28;21095;-71
2023/03/08 02:49:29;;;;;;;10.60;7.93;;;;;;;4.24;49.07;94783.22;5024929;28;20237;-70
2023/03/08 02:51:54;;;;;;;12.27;8.40;;;;;;;3.99;50.50;94786.09;5027937;28;20346;-67
2023/03/08 02:54:19;;;;;;;9.73;7.57;;;;;;;4.16;49.97;94776.69;5027836;28;20191;-69
2023/03/08 02:56:45;;;;;;;10.87;6.90;;;;;;;4.18;49.54;94767.06;5028447;28;20250;-68
2023/03/08 02:59:10;;;;;;;11.07;7.87;;;;;;;4.30;49.87;94766.53;5028696;28;20533;-69
2023/03/08 03:01:36;;;;;;;9.40;7.40;;;;;;;4.52;49.09;94757.75;5027636;28;20195;-69
2023/03/08 03:04:01;;;;;;;10.30;6.70;;;;;;;4.59;48.67;94753.94;5028603;28;20782;-69
2023/03/08 03:06:27;;;;;;;10.47;8.40;;;;;;;4.57;48.74;94758.38;5027985;28;20195;-71
2023/03/08 03:08:52;;;;;;;9.97;6.50;;;;;;;4.58;49.04;94747.91;5028899;28;20171;-70
2023/03/08 03:11:20;;;;;;;10.77;8.03;;;;;;;4.75;48.94;94754.91;5028807;28;20191;-70
2023/03/08 03:13:46;;;;;;;16.17;8.13;;;;;;;4.54;49.24;94759.34;5028590;28;20248;-70
2023/03/08 03:16:14;;;;;;;13.50;7.93;;;;;;;4.70;48.96;94754.28;5028451;28;20497;-69
2023/03/08 03:18:40;;;;;;;11.03;7.60;;;;;;;4.68;49.00;94756.13;5028594;28;20247;-69
2023/03/08 03:21:09;;;;;;;11.27;8.30;;;;;;;4.64;49.28;94755.41;5028323;28;20410;-69
2023/03/08 03:23:35;;;;;;;10.73;7.93;;;;;;;4.69;49.33;94744.78;5028452;28;20442;-69
2023/03/08 03:26:08;;;;;;;16.57;9.40;;;;;;;4.64;49.20;94742.41;5027997;28;20981;-69
2023/03/08 03:28:33;;;;;;;13.00;8.50;;;;;;;4.62;49.18;94733.84;5028214;28;20772;-69
2023/03/08 03:30:59;;;;;;;14.20;8.47;;;;;;;4.65;49.83;94727.66;5028028;28;20437;-68
2023/03/08 03:33:24;;;;;;;10.40;7.37;;;;;;;4.65;49.07;94725.94;5027781;28;20433;-69
2023/03/08 03:35:50;;;;;;;14.80;8.70;;;;;;;4.82;49.11;94722.53;5027994;28;20182;-68
2023/03/08 03:38:15;;;;;;;14.90;8.13;;;;;;;4.75;49.60;94721.13;5028249;28;20175;-70
2023/03/08 03:40:41;;;;;;;10.37;8.50;;;;;;;4.73;49.23;94712.56;5027936;28;20163;-67
2023/03/08 03:43:06;;;;;;;12.40;7.67;;;;;;;4.71;49.78;94708.34;5028074;28;20210;-70
2023/03/08 03:45:32;;;;;;;10.47;7.47;;;;;;;4.70;49.49;94717.91;5027235;28;20706;-70
2023/03/08 03:47:57;;;;;;;14.67;9.03;;;;;;;4.63;49.79;94704.38;5027532;28;20163;-69
2023/03/08 03:50:22;;;;;;;11.10;7.50;;;;;;;4.66;49.86;94693.81;5027666;28;20178;-69
2023/03/08 03:52:48;;;;;;;14.93;9.67;;;;;;;4.64;49.88;94698.25;5027901;28;20223;-69
2023/03/08 03:55:13;;;;;;;11.30;7.97;;;;;;;4.54;50.56;94694.41;5035525;28;20179;-66
2023/03/08 03:57:39;;;;;;;12.83;8.47;;;;;;;4.55;50.66;94701.28;5043887;28;20179;-70
2023/03/08 04:00:05;;;;;;;12.87;7.77;;;;;;;4.62;50.07;94699.25;5029758;28;20962;-70
2023/03/08 04:02:30;;;;;;;16.40;8.90;;;;;;;4.67;50.00;94697.25;5030625;28;20196;-70
2023/03/08 04:04:56;;;;;;;12.00;8.73;;;;;;;4.66;50.16;94695.59;5027592;28;20501;-70
2023/03/08 04:07:22;;;;;;;13.63;9.70;;;;;;;4.57;50.79;94688.22;5027066;28;20249;-68
2023/03/08 04:09:47;;;;;;;12.07;8.80;;;;;;;4.60;50.48;94685.47;5027418;28;20891;-70
2023/03/08 04:12:13;;;;;;;11.17;8.57;;;;;;;4.60;50.91;94685.47;5027003;28;20199;-69
2023/03/08 04:14:39;;;;;;;14.70;9.43;;;;;;;4.55;51.19;94680.50;5027467;28;20825;-69
2023/03/08 04:17:05;;;;;;;13.87;9.80;;;;;;;4.57;51.01;94680.44;5026979;28;20417;-70
2023/03/08 04:19:31;;;;;;;17.37;8.77;;;;;;;4.56;50.78;94668.34;5027647;28;20178;-70
2023/03/08 04:21:56;;;;;;;11.20;10.00;;;;;;;4.54;51.13;94662.41;5027349;28;20411;-69
2023/03/08 04:24:22;;;;;;;14.60;8.93;;;;;;;4.53;51.29;94661.53;5027210;28;20187;-70
2023/03/08 04:26:47;;;;;;;19.20;10.83;;;;;;;4.66;50.91;94670.44;5026562;28;20853;-70
2023/03/08 04:29:13;;;;;;;15.70;10.13;;;;;;;4.69;50.97;94668.63;5027173;28;20215;-69
2023/03/08 04:31:38;;;;;;;19.63;10.30;;;;;;;4.64;51.22;94668.84;5012432;28;20868;-69
2023/03/08 04:34:03;;;;;;;15.20;9.53;;;;;;;4.64;50.82;94653.25;5007282;28;20200;-68
2023/03/08 04:36:29;;;;;;;18.20;10.80;;;;;;;4.66;51.33;94654.84;5007226;28;20169;-69
2023/03/08 04:38:55;;;;;;;17.13;10.13;;;;;;;4.63;51.51;94657.59;5007255;28;20863;-71
2023/03/08 04:41:20;;;;;;;12.93;9.63;;;;;;;4.56;51.83;94639.78;5007402;28;20726;-69
2023/03/08 04:43:49;;;;;;;16.47;10.17;;;;;;;4.61;51.91;94627.44;5007018;28;20188;-70
2023/03/08 04:46:16;;;;;;;17.63;9.60;;;;;;;4.66;51.04;94623.69;5026301;28;20225;-69
2023/03/08 04:48:42;;;;;;;15.60;10.10;;;;;;;4.64;51.05;94625.50;5036597;28;20410;-67
2023/03/08 04:51:08;;;;;;;20.50;10.60;;;;;;;4.64;51.04;94630.69;5039562;28;20410;-71
2023/03/08 04:53:34;;;;;;;14.87;10.50;;;;;;;4.67;51.05;94640.94;5029884;28;20249;-70
2023/03/08 04:56:00;;;;;;;17.90;10.10;;;;;;;4.57;51.70;94638.88;5028587;28;20406;-71
2023/03/08 04:58:27;;;;;;;16.53;10.10;;;;;;;4.74;51.24;94631.09;5026968;28;20456;-68
2023/03/08 05:00:52;;;;;;;15.10;9.83;;;;;;;4.70;51.51;94634.78;5026802;28;20167;-70
2023/03/08 05:03:18;;;;;;;17.27;10.40;;;;;;;4.74;51.63;94640.63;5026462;28;20433;-70
2023/03/08 05:05:48;;;;;;;20.43;10.83;;;;;;;4.74;51.46;94636.28;5026326;28;20199;-70
2023/03/08 05:08:14;;;;;;;15.53;10.53;;;;;;;4.70;51.54;94634.78;5026596;28;20175;-70
2023/03/08 05:10:45;;;;;;;17.77;10.43;;;;;;;4.78;51.69;94630.03;5030182;28;20572;-70
2023/03/08 05:13:11;;;;;;;19.37;12.40;;;;;;;4.84;51.54;94631.47;5030633;28;20188;-70
2023/03/08 05:15:36;;;;;;;23.30;11.80;;;;;;;4.93;51.51;94627.56;5031586;28;20460;-70
2023/03/08 05:18:02;;;;;;;21.00;12.40;;;;;;;4.91;51.30;94626.81;5030489;28;20633;-70
2023/03/08 05:20:27;;;;;;;14.33;10.40;;;;;;;4.91;51.26;94622.44;5031503;28;20167;-71
2023/03/08 05:22:53;;;;;;;24.33;11.13;;;;;;;4.79;51.35;94613.50;5031294;28;20188;-70
2023/03/08 05:25:18;;;;;;;29.30;12.87;;;;;;;4.87;51.28;94615.75;5031548;28;20167;-70
2023/03/08 05:27:43;;;;;;;26.03;13.50;;;;;;;4.85;51.21;94609.78;5030229;28;20678;-69
2023/03/08 05:30:10;;;;;;;20.23;11.73;;;;;;;4.79;51.70;94605.69;5030928;28;20167;-69
2023/03/08 05:32:35;;;;;;;34.43;12.20;;;;;;;4.84;51.40;94592.47;5030071;28;20302;-68
2023/03/08 05:35:00;;;;;;;28.83;16.10;;;;;;;4.91;51.47;94593.03;5030866;28;20853;-70
2023/03/08 05:37:26;;;;;;;22.80;12.13;;;;;;;4.82;51.53;94602.97;5030087;28;20716;-69
2023/03/08 05:39:51;;;;;;;21.20;12.80;;;;;;;4.82;51.92;94594.34;5030239;28;20197;-69
2023/03/08 05:42:18;;;;;;;15.80;11.93;;;;;;;4.80;51.48;94593.56;5030244;28;20167;-70
2023/03/08 05:44:44;;;;;;;18.03;10.57;;;;;;;4.76;52.13;94597.25;5028765;28;20174;-71
2023/03/08 05:47:09;;;;;;;26.60;11.67;;;;;;;4.54;52.68;94592.28;5029938;28;20461;-69
2023/03/08 05:49:35;;;;;;;18.77;11.53;;;;;;;4.71;52.40;94594.88;5029992;28;20438;-68
2023/03/08 05:52:00;;;;;;;16.70;10.30;;;;;;;4.69;51.74;94596.69;5030372;28;20827;-68
2023/03/08 05:54:26;;;;;;;16.93;10.43;;;;;;;4.70;52.38;94593.19;5029938;28;20202;-68
2023/03/08 05:56:51;;;;;;;26.70;12.37;;;;;;;4.79;52.23;94591.88;5029928;28;20226;-69
2023/03/08 05:59:17;;;;;;;15.97;11.90;;;;;;;4.74;52.37;94594.69;5030205;28;20179;-70
2023/03/08 06:01:42;;;;;;;22.13;11.40;;;;;;;4.75;51.94;94596.41;5030062;28;20625;-69
2023/03/08 06:04:08;;;;;;;17.27;12.10;;;;;;;4.67;51.94;94590.72;5030160;28;20233;-70
2023/03/08 06:06:33;;;;;;;21.90;12.37;;;;;;;4.78;52.06;94588.44;5029629;28;20211;-70
2023/03/08 06:08:58;;;;;;;22.20;11.70;;;;;;;4.69;52.51;94596.69;5029453;28;20306;-70
2023/03/08 06:11:24;;;;;;;17.03;11.27;;;;;;;4.81;51.87;94596.06;5028644;28;20214;-71
2023/03/08 06:13:50;;;;;;;19.00;11.77;;;;;;;4.92;51.41;94597.31;5029570;28;20301;-71
2023/03/08 06:16:16;;;;;;;18.60;12.40;;;;;;;4.77;51.82;94599.78;5029503;28;20181;-68
2023/03/08 06:18:42;;;;;;;19.93;12.30;;;;;;;4.82;51.57;94587.38;5030736;28;20177;-72
2023/03/08 06:21:10;;;;;;;28.40;14.03;;;;;;;4.81;52.02;94580.47;5028549;28;20426;-70
2023/03/08 06:23:36;;;;;;;11.00;5.50;;;;;;;6.95;73.05;94582.72;5030092;28;20449;-67
2023/03/08 06:26:02;;;;;;;19.20;8.23;;;;;;;8.49;63.73;94568.06;5029284;28;20461;-67
2023/03/08 06:28:28;;;;;;;19.20;11.97;;;;;;;8.20;47.07;94569.91;5029265;28;20422;-71
2023/03/08 06:30:54;;;;;;;18.00;11.67;;;;;;;6.36;47.97;94568.78;5028713;28;20413;-69
2023/03/08 06:33:22;;;;;;;15.30;11.70;;;;;;;5.62;49.89;94570.22;5028993;28;20910;-69
2023/03/08 06:36:01;;;;;;;17.30;11.47;;;;;;;5.18;51.17;94578.59;5028657;28;20254;-69
2023/03/08 06:38:28;;;;;;;20.53;11.37;;;;;;;5.18;51.74;94568.22;5028234;28;20866;-69
2023/03/08 06:40:53;;;;;;;21.93;13.40;;;;;;;5.10;52.17;94572.94;5027794;28;20967;-69
2023/03/08 06:43:20;;;;;;;19.73;13.37;;;;;;;4.69;53.14;94569.88;5028135;28;20442;-69
2023/03/08 06:45:45;;;;;;;21.37;12.63;;;;;;;4.99;52.54;94563.13;5024449;28;20210;-69
2023/03/08 06:48:10;;;;;;;20.17;11.80;;;;;;;4.86;52.87;94562.91;5027799;28;20418;-69
2023/03/08 06:50:36;;;;;;;19.43;12.10;;;;;;;4.93;53.25;94560.00;5028077;28;20171;-68
2023/03/08 06:53:01;;;;;;;19.43;12.17;;;;;;;4.79;52.95;94563.28;5028116;28;20203;-69
2023/03/08 06:55:27;;;;;;;22.20;12.47;;;;;;;4.94;53.03;94556.47;5028360;28;20199;-69
2023/03/08 06:57:54;;;;;;;19.17;13.10;;;;;;;4.97;52.64;94564.97;5028388;28;20186;-69
2023/03/08 07:00:20;;;;;;;14.60;11.70;;;;;;;4.85;53.43;94545.63;5025320;28;20552;-69
2023/03/08 07:02:47;;;;;;;19.27;12.00;;;;;;;4.51;54.26;94541.28;5033896;28;20445;-68
2023/03/08 07:05:13;;;;;;;19.90;13.30;;;;;;;4.79;53.82;94535.53;5043694;28;20410;-68
2023/03/08 07:07:38;;;;;;;16.67;12.17;;;;;;;4.65;54.05;94545.81;5027499;28;20410;-68
2023/03/08 07:10:05;;;;;;;19.17;12.80;;;;;;;4.54;54.95;94535.97;5022487;28;20423;-69
2023/03/08 07:12:31;;;;;;;18.33;11.63;;;;;;;4.55;54.89;94516.00;5028429;28;20210;-68
2023/03/08 07:14:57;;;;;;;17.93;11.70;;;;;;;4.41;54.99;94522.72;5040844;28;20441;-69
2023/03/08 07:17:23;;;;;;;20.30;13.17;;;;;;;4.71;54.44;94531.69;5032477;28;20888;-68
2023/03/08 07:19:49;;;;;;;22.03;14.07;;;;;;;4.73;54.60;94517.69;5026703;28;20528;-69
2023/03/08 07:22:14;;;;;;;30.03;15.27;;;;;;;4.93;54.57;94519.25;5026862;28;20171;-69
2023/03/08 07:24:40;;;;;;;20.30;13.97;;;;;;;5.01;53.38;94514.50;5027542;28;20175;-70
2023/03/08 07:27:05;;;;;;;20.73;12.70;;;;;;;5.08;53.51;94510.66;5029724;28;20246;-69
2023/03/08 07:29:30;;;;;;;20.80;12.97;;;;;;;5.48;52.96;94503.31;5027442;28;20183;-68
2023/03/08 07:31:56;;;;;;;15.67;7.67;;;;;;;7.09;64.63;94500.25;5021899;28;20551;-69
2023/03/08 07:34:21;;;;;;;16.17;11.60;;;;;;;6.95;48.89;94494.06;5027297;28;20203;-69
2023/03/08 07:36:48;;;;;;;20.30;12.67;;;;;;;6.26;49.80;94479.91;5026969;28;20234;-69
2023/03/08 07:39:15;;;;;;;20.83;13.13;;;;;;;5.72;51.38;94472.50;5027348;28;20172;-68
2023/03/08 07:41:40;;;;;;;20.23;13.23;;;;;;;5.60;51.59;94475.78;5027485;28;20441;-68
2023/03/08 07:44:06;;;;;;;20.07;12.37;;;;;;;5.63;51.94;94464.38;5027353;28;20795;-70
2023/03/08 07:46:31;;;;;;;17.53;13.30;;;;;;;5.65;52.10;94460.75;5027249;28;20207;-69
2023/03/08 07:48:56;;;;;;;17.17;12.40;;;;;;;5.67;52.25;94451.09;5027543;28;20590;-69
2023/03/08 07:51:22;;;;;;;21.70;12.80;;;;;;;5.75;51.94;94452.44;5033926;28;20290;-68
2023/03/08 07:53:48;;;;;;;18.03;13.37;;;;;;;5.76;52.32;94448.91;5034099;28;20228;-69
2023/03/08 07:56:13;;;;;;;19.23;12.57;;;;;;;5.70;51.99;94450.09;5028041;28;20172;-69
2023/03/08 07:58:38;;;;;;;29.57;14.33;;;;;;;5.77;52.20;94443.63;5027597;28;20194;-69
2023/03/08 08:01:12;;;;;;;16.90;12.70;;;;;;;5.88;52.03;94446.47;5028028;28;20316;-69
2023/03/08 08:03:38;;;;;;;19.33;13.60;;;;;;;5.90;51.99;94455.00;5027573;28;20274;-70
2023/03/08 08:06:05;;;;;;;18.37;14.53;;;;;;;6.00;51.99;94451.91;5026897;28;20450;-70
2023/03/08 08:08:30;;;;;;;18.43;13.70;;;;;;;5.97;52.42;94447.72;5027122;28;20521;-70
2023/03/08 08:10:56;;;;;;;24.67;13.50;;;;;;;6.15;51.92;94441.44;5026956;28;20554;-67
2023/03/08 08:13:21;;;;;;;16.30;13.10;;;;;;;6.17;52.04;94430.13;5026863;28;20603;-70
2023/03/08 08:15:57;;;;;;;17.77;13.97;;;;;;;6.14;51.65;94433.72;5026641;28;20179;-68
2023/03/08 08:18:22;;;;;;;25.33;13.30;;;;;;;6.23;52.15;94420.16;5026651;28;20171;-67
2023/03/08 08:20:48;;;;;;;24.30;13.67;;;;;;;6.28;52.02;94425.97;5026839;28;20422;-68
2023/03/08 08:23:13;;;;;;;21.40;13.07;;;;;;;6.33;51.73;94425.66;5026600;28;20203;-68
2023/03/08 08:25:39;;;;;;;20.03;13.80;;;;;;;6.41;52.22;94422.63;5026450;28;20302;-67
2023/03/08 08:28:04;;;;;;;19.87;13.70;;;;;;;6.32;52.01;94424.00;5024869;28;20241;-69
2023/03/08 08:30:30;;;;;;;32.60;13.90;;;;;;;6.32;52.50;94442.22;5021046;28;20423;-69
2023/03/08 08:32:56;;;;;;;18.10;12.60;;;;;;;6.48;52.21;94432.59;5006765;28;20557;-69
2023/03/08 08:35:21;;;;;;;15.47;11.27;;;;;;;6.40;52.61;94413.94;5006571;28;20179;-67
2023/03/08 08:37:47;;;;;;;17.43;12.40;;;;;;;6.42;52.44;94396.47;5006514;28;20419;-70
2023/03/08 08:40:12;;;;;;;18.00;13.20;;;;;;;6.43;52.48;94392.13;5006844;28;20180;-68
2023/03/08 08:42:38;;;;;;;20.90;12.00;;;;;;;6.41;52.93;94373.13;5006410;28;20811;-68
2023/03/08 08:45:04;;;;;;;30.20;13.57;;;;;;;6.45;52.60;94370.25;5015822;28;20274;-69
2023/03/08 08:47:29;;;;;;;21.23;10.83;;;;;;;6.52;52.16;94362.88;5025941;28;20198;-69
2023/03/08 08:49:55;;;;;;;19.50;11.50;;;;;;;6.63;52.38;94357.03;5024832;28;20422;-69
2023/03/08 08:52:20;;;;;;;21.43;12.50;;;;;;;6.55;52.84;94340.09;5026711;28;20667;-68
2023/03/08 08:54:46;;;;;;;26.47;13.60;;;;;;;6.58;52.34;94332.06;5026252;28;20175;-68
2023/03/08 08:57:11;;;;;;;15.83;10.80;;;;;;;6.55;52.52;94328.84;5026510;28;20259;-69
2023/03/08 08:59:37;;;;;;;16.30;11.53;;;;;;;6.65;52.67;94329.09;5026803;28;20267;-68
2023/03/08 09:02:03;;;;;;;17.43;11.67;;;;;;;6.53;52.91;94328.91;5026302;28;20259;-68
2023/03/08 09:04:28;;;;;;;18.63;12.10;;;;;;;6.58;52.90;94339.88;5026502;28;20175;-68
2023/03/08 09:06:53;;;;;;;19.07;12.37;;;;;;;6.69;52.48;94341.03;5026309;28;20218;-68
2023/03/08 09:09:19;;;;;;;13.03;9.77;;;;;;;6.81;52.11;94319.41;5026865;28;20187;-68
2023/03/08 09:11:46;;;;;;;27.33;10.80;;;;;;;6.83;51.91;94327.97;5026601;28;20712;-69
2023/03/08 09:14:12;;;;;;;23.10;10.87;;;;;;;6.78;52.10;94306.56;5026048;28;20214;-68
2023/03/08 09:16:38;;;;;;;17.40;10.43;;;;;;;6.86;52.06;94314.72;5025757;28;20422;-69
2023/03/08 09:19:04;;;;;;;11.40;8.37;;;;;;;6.85;51.96;94315.69;5023968;28;20813;-68
2023/03/08 09:21:30;;;;;;;18.00;10.27;;;;;;;6.97;51.98;94314.91;5025816;28;20190;-69
2023/03/08 09:24:00;;;;;;;15.13;9.10;;;;;;;6.94;52.18;94302.03;5026130;28;20442;-68
2023/03/08 09:26:30;;;;;;;16.20;10.60;;;;;;;6.93;52.03;94308.19;5025708;28;20480;-68
2023/03/08 09:29:03;;;;;;;19.07;9.47;;;;;;;6.78;53.01;94306.56;5026481;28;20868;-70
2023/03/08 09:31:29;;;;;;;15.03;10.13;;;;;;;6.88;52.93;94299.00;5026135;28;20497;-68
2023/03/08 09:33:55;;;;;;;15.80;8.40;;;;;;;6.89;52.58;94292.84;5026097;28;20529;-69
2023/03/08 09:36:20;;;;;;;12.30;7.97;;;;;;;6.99;52.72;94286.94;5025761;28;20411;-68
2023/03/08 09:38:47;;;;;;;13.93;8.23;;;;;;;7.19;51.88;94279.63;5026210;28;20249;-68
2023/03/08 09:41:24;;;;;;;14.53;9.20;;;;;;;7.37;51.12;94281.03;5026467;28;20186;-70
2023/03/08 09:44:27;;;;;;;11.00;8.03;;;;;;;7.45;51.52;94285.75;5024851;28;20536;-69
2023/03/08 09:47:00;;;;;;;10.40;7.33;;;;;;;7.50;50.81;94272.41;5025824;28;20462;-68
2023/03/08 09:49:31;;;;;;;12.80;9.07;;;;;;;7.54;50.93;94271.25;5026136;28;20472;-68
2023/03/08 09:52:21;;;;;;;11.87;8.83;;;;;;;7.71;51.05;94270.97;5026092;28;20417;-68
2023/03/08 09:54:48;;;;;;;10.13;7.90;;;;;;;7.76;51.05;94266.28;5026103;28;20419;-69
2023/03/08 09:57:22;;;;;;;17.67;8.00;;;;;;;7.78;50.83;94266.19;5029462;28;20804;-69
2023/03/08 10:00:00;;;;;;;15.73;10.80;;;;;;;7.83;50.75;94262.31;5009538;28;20442;-69
2023/03/08 10:02:48;;;;;;;8.40;7.47;;;;;;;7.90;51.00;94251.47;5009582;28;20449;-69
2023/03/08 10:05:22;;;;;;;9.10;6.97;;;;;;;7.97;50.75;94245.72;5009313;28;20403;-69
2023/03/08 10:08:06;;;;;;;11.60;7.10;;;;;;;7.92;51.65;94245.19;5009905;28;20429;-69
2023/03/08 10:11:00;;;;;;;11.00;7.27;;;;;;;7.98;52.05;94233.47;5009722;28;20983;-68
2023/03/08 10:13:41;;;;;;;12.27;7.63;;;;;;;8.07;52.46;94240.69;5009241;28;20438;-68
2023/03/08 10:16:23;;;;;;;10.63;6.70;;;;;;;8.10;52.18;94234.41;5008548;28;20501;-68
2023/03/08 10:18:51;;;;;;;17.70;5.50;;;;;;;8.02;52.68;94227.09;5009226;28;20411;-68
2023/03/08 10:21:19;;;;;;;10.70;5.77;;;;;;;8.08;52.77;94224.09;5007833;28;20544;-70
2023/03/08 10:23:51;;;;;;;9.23;5.17;;;;;;;8.04;52.28;94220.84;5009767;28;20434;-69
2023/03/08 10:26:17;;;;;;;10.40;5.03;;;;;;;8.12;52.11;94222.91;5008833;28;20462;-68
2023/03/08 10:28:43;;;;;;;8.70;6.00;;;;;;;8.18;52.48;94214.66;5009250;28;20411;-68
2023/03/08 10:31:27;;;;;;;7.60;5.70;;;;;;;8.30;51.89;94217.38;5020405;28;20175;-70
2023/03/08 10:34:02;;;;;;;8.23;5.13;;;;;;;8.30;52.34;94212.16;5028906;28;20195;-68
2023/03/08 10:36:28;;;;;;;7.37;4.40;;;;;;;8.43;52.38;94215.56;5028332;28;20409;-69
2023/03/08 10:39:10;;;;;;;8.50;5.47;;;;;;;8.46;53.12;94218.00;5029259;28;20484;-70
2023/03/08 10:41:42;;;;;;;10.10;5.53;;;;;;;8.50;53.20;94203.75;5028639;28;20293;-70
2023/03/08 10:44:38;;;;;;;13.93;5.97;;;;;;;8.54;53.49;94215.66;5028084;28;20438;-70
2023/03/08 10:47:23;;;;;;;16.60;5.40;;;;;;;8.57;53.06;94210.22;5027892;28;20470;-69
2023/03/08 10:50:12;;;;;;;8.60;5.20;;;;;;;8.66;53.43;94209.56;5028365;28;20453;-68
2023/03/08 10:52:39;;;;;;;8.03;5.37;;;;;;;8.52;53.44;94201.03;5026960;28;20442;-68
2023/03/08 10:55:11;;;;;;;9.80;5.37;;;;;;;8.51;54.01;94215.88;5028472;28;20554;-69
2023/03/08 10:57:38;;;;;;;11.70;6.10;;;;;;;8.48;54.13;94226.56;5027931;28;20410;-68
2023/03/08 11:00:28;;;;;;;17.53;5.37;;;;;;;8.51;54.41;94215.06;5028724;28;20603;-70
2023/03/08 11:03:02;;;;;;;11.90;5.13;;;;;;;8.50;54.44;94214.19;5008663;28;20542;-69
2023/03/08 11:05:28;;;;;;;13.57;4.97;;;;;;;8.59;53.85;94217.94;5007367;28;20466;-69
2023/03/08 11:07:56;;;;;;;10.80;4.43;;;;;;;8.65;54.95;94205.28;5008479;28;20923;-69
2023/03/08 11:10:26;;;;;;;13.33;5.43;;;;;;;8.68;54.04;94215.50;5010837;28;20176;-69
2023/03/08 11:13:09;;;;;;;7.30;4.27;;;;;;;8.70;54.45;94207.56;5028277;28;20426;-70
2023/03/08 11:15:39;;;;;;;5.60;4.37;;;;;;;8.78;54.47;94202.59;5028437;28;20409;-69
2023/03/08 11:18:04;;;;;;;4.30;3.90;;;;;;;8.83;55.52;94204.91;5026929;28;20500;-69
2023/03/08 11:20:46;;;;;;;4.97;3.80;;;;;;;8.88;55.27;94187.94;5028722;28;20452;-67
2023/03/08 11:23:37;;;;;;;9.20;5.77;;;;;;;9.00;55.00;94188.81;5027142;28;20231;-69
2023/03/08 11:26:08;;;;;;;9.43;4.57;;;;;;;9.08;54.95;94196.94;5027392;28;20511;-69
2023/03/08 11:28:57;;;;;;;6.37;4.00;;;;;;;9.06;55.27;94213.69;5028272;28;20517;-68
2023/03/08 11:31:23;;;;;;;4.97;3.40;;;;;;;9.11;55.42;94204.56;5027960;28;20455;-69
2023/03/08 11:34:05;;;;;;;13.00;3.90;;;;;;;9.18;55.62;94204.13;5027806;28;20468;-69